KMHR/MHR METAR and TAF weather

Enter ICAO airport designator
Station Type Date Time Source
KMHR METAR 2019/04/19 06:30 UTC NOAA

KMHR 190630Z 00000KT 10SM SCT250 16/14 A3001


Station Type Date Time Source
KMHR Decoded METAR 2019/04/19 06:30 UTC NOAA

Sacramento, Sacramento Mather Airport, CA, United States (KMHR) 38-33N 121-18W
Apr 19, 2019 - 02:30 AM EDT / 2019.04.19 0630 UTC
Wind: Calm:0
Visibility: 10 mile(s):0
Sky conditions: partly cloudy
Temperature: 60 F (16 C)
Dew Point: 57 F (14 C)
Relative Humidity: 87%
Pressure (altimeter): 30.01 in. Hg (1016 hPa)
ob: KMHR 190630Z 00000KT 10SM SCT250 16/14 A3001
cycle: 6

Station Type Date Time Source
KMHR TAF 2019/04/19 06:34 UTC NOAA

TAF KMHR 190531Z 1906/2006 VRB03KT P6SM SCT250
FM192100 23005KT P6SM SCT250

Example: see airport list